createdAt,value
2022-08-01T00:01:47.694Z,22.55
2022-08-01T00:04:50.283Z,24.80
2022-08-01T00:07:54.753Z,18.65
2022-08-01T00:10:59.343Z,20.50
2022-08-01T00:14:05.170Z,19.98
2022-08-01T00:17:07.726Z,24.10
2022-08-01T00:20:14.462Z,24.42
2022-08-01T00:23:16.719Z,27.83
2022-08-01T00:26:18.933Z,28.77
2022-08-01T00:30:11.915Z,31.70
2022-08-01T00:32:44.045Z,26.83
2022-08-01T00:35:46.189Z,29.35
2022-08-01T00:38:48.405Z,30.88
2022-08-01T00:41:50.676Z,31.00
2022-08-01T00:45:02.427Z,25.42
2022-08-01T00:48:04.869Z,23.98
2022-08-01T00:51:08.517Z,27.70
2022-08-01T00:54:10.727Z,27.23
2022-08-01T00:57:15.738Z,28.35
2022-08-01T01:00:26.333Z,31.35
2022-08-01T01:03:57.138Z,29.13
2022-08-01T01:07:04.266Z,25.25
2022-08-01T01:13:34.005Z,25.45
2022-08-01T01:16:42.209Z,26.20
2022-08-01T01:19:49.530Z,29.95
2022-08-01T01:22:54.981Z,34.80
2022-08-01T01:26:33.092Z,27.08
2022-08-01T01:29:59.693Z,28.20
2022-08-01T01:33:06.899Z,27.58
2022-08-01T01:36:12.027Z,26.02
2022-08-01T01:39:16.746Z,24.65
2022-08-01T01:42:20.058Z,20.90
2022-08-01T01:45:24.727Z,21.73
2022-08-01T01:48:28.947Z,17.65
2022-08-01T01:51:32.924Z,18.50
2022-08-01T01:54:51.793Z,19.88
2022-08-01T01:57:56.811Z,19.38
2022-08-01T02:01:02.835Z,17.55
2022-08-01T02:04:08.131Z,16.90
2022-08-01T02:07:18.719Z,17.98
2022-08-01T02:10:21.273Z,14.75
2022-08-01T02:13:34.030Z,12.85
2022-08-01T02:16:38.356Z,14.52
2022-08-01T02:19:41.441Z,15.95
2022-08-01T02:22:50.356Z,14.75
2022-08-01T02:26:10.284Z,14.93
2022-08-01T02:29:20.574Z,19.45
2022-08-01T02:32:39.583Z,14.43
2022-08-01T02:36:31.797Z,16.58
2022-08-01T02:39:14.782Z,20.02
2022-08-01T02:42:19.500Z,21.80
2022-08-01T02:45:26.305Z,16.77
2022-08-01T02:48:31.322Z,18.05
2022-08-01T02:51:34.157Z,18.05
2022-08-01T02:54:41.631Z,18.15
2022-08-01T02:57:52.049Z,20.98
2022-08-01T03:00:55.488Z,23.23
2022-08-01T03:03:58.872Z,24.42
2022-08-01T03:07:05.340Z,22.20
2022-08-01T03:10:08.071Z,22.48
2022-08-01T03:13:12.397Z,20.05
2022-08-01T03:16:18.026Z,23.70
2022-08-01T03:19:21.655Z,20.17
2022-08-01T03:22:26.968Z,20.17
2022-08-01T03:25:33.216Z,18.75
2022-08-01T03:28:36.635Z,14.65
2022-08-01T03:31:39.706Z,21.25
2022-08-01T03:34:42.246Z,15.45
2022-08-01T03:38:14.945Z,16.10
2022-08-01T03:41:17.095Z,16.38
2022-08-01T03:44:25.747Z,19.85
2022-08-01T03:47:32.986Z,21.63
2022-08-01T03:50:38.080Z,24.70
2022-08-01T03:53:42.517Z,16.15
2022-08-01T03:56:47.067Z,24.08
2022-08-01T03:59:50.929Z,21.70
2022-08-01T04:06:01.218Z,19.83
2022-08-01T04:09:04.369Z,22.95
2022-08-01T04:12:11.991Z,20.13
2022-08-01T04:15:28.545Z,16.27
2022-08-01T04:18:31.424Z,16.92
2022-08-01T04:21:35.172Z,18.48
2022-08-01T04:24:38.468Z,16.20
2022-08-01T04:27:51.015Z,20.55
2022-08-01T04:30:59.875Z,13.30
2022-08-01T04:34:06.912Z,17.25
2022-08-01T04:37:13.954Z,18.70
2022-08-01T04:40:17.330Z,15.20
2022-08-01T04:43:20.102Z,14.35
2022-08-01T04:46:23.669Z,17.17
2022-08-01T04:49:27.860Z,20.55
2022-08-01T04:52:37.125Z,17.95
2022-08-01T04:55:39.238Z,23.23
2022-08-01T04:58:42.629Z,18.13
2022-08-01T05:01:49.990Z,18.55
2022-08-01T05:04:52.245Z,13.98
2022-08-01T05:07:54.495Z,16.25
2022-08-01T05:10:56.812Z,19.55
2022-08-01T05:13:58.937Z,18.65
2022-08-01T05:17:04.342Z,16.52
2022-08-01T05:20:09.955Z,17.77
2022-08-01T05:23:19.229Z,18.75
2022-08-01T05:26:34.241Z,12.73
2022-08-01T05:29:44.085Z,17.63
2022-08-01T05:32:46.927Z,19.80
2022-08-01T05:35:49.449Z,16.48
2022-08-01T05:38:51.959Z,12.77
2022-08-01T05:41:54.488Z,13.38
2022-08-01T05:44:57.060Z,16.55
2022-08-01T05:47:59.240Z,15.68
2022-08-01T05:51:01.432Z,16.92
2022-08-01T05:54:03.874Z,15.90
2022-08-01T05:57:06.025Z,19.42
2022-08-01T06:00:09.076Z,16.95
2022-08-01T06:03:12.630Z,19.98
2022-08-01T06:06:15.448Z,17.52
2022-08-01T06:09:20.725Z,27.83
2022-08-01T06:12:23.157Z,20.27
2022-08-01T06:15:25.694Z,16.00
2022-08-01T06:18:28.147Z,20.58
2022-08-01T06:21:33.146Z,16.80
2022-08-01T06:24:35.289Z,15.73
2022-08-01T06:27:37.736Z,11.52
2022-08-01T06:30:40.375Z,9.48
2022-08-01T06:33:42.752Z,12.27
2022-08-01T06:36:45.103Z,10.70
2022-08-01T06:39:47.267Z,10.60
2022-08-01T06:42:52.386Z,9.00
2022-08-01T06:45:54.842Z,8.10
2022-08-01T06:48:57.354Z,10.80
2022-08-01T06:51:59.817Z,13.38
2022-08-01T06:55:02.412Z,9.90
2022-08-01T06:58:04.602Z,11.98
2022-08-01T07:01:08.240Z,10.85
2022-08-01T07:04:10.776Z,37.08
2022-08-01T07:07:12.969Z,14.05
2022-08-01T07:10:15.253Z,13.48
2022-08-01T07:13:21.738Z,11.23
2022-08-01T07:16:24.268Z,17.58
2022-08-01T07:19:27.165Z,12.50
2022-08-01T07:22:29.348Z,8.07
2022-08-01T07:25:32.127Z,15.60
2022-08-01T07:28:34.457Z,16.67
2022-08-01T07:31:37.292Z,10.38
2022-08-01T07:34:39.490Z,14.63
2022-08-01T07:37:48.473Z,17.20
2022-08-01T07:40:51.798Z,23.67
2022-08-01T07:43:58.045Z,13.63
2022-08-01T07:47:02.881Z,12.57
2022-08-01T07:50:06.918Z,11.85
2022-08-01T07:53:11.325Z,14.65
2022-08-01T07:56:13.533Z,15.10
2022-08-01T07:59:15.646Z,10.70
2022-08-01T08:02:28.455Z,13.57
2022-08-01T08:05:58.723Z,13.70
2022-08-01T08:08:55.986Z,14.20
2022-08-01T08:11:58.215Z,11.68
2022-08-01T08:15:01.636Z,14.30
2022-08-01T08:18:05.337Z,11.77
2022-08-01T08:21:07.626Z,10.55
2022-08-01T08:24:26.643Z,12.13
2022-08-01T08:27:29.728Z,19.20
2022-08-01T08:30:31.997Z,12.82
2022-08-01T08:33:34.121Z,13.70
2022-08-01T08:36:38.624Z,12.95
2022-08-01T08:39:50.376Z,9.82
2022-08-01T08:42:53.986Z,11.90
2022-08-01T08:46:00.529Z,12.32
2022-08-01T08:49:05.010Z,7.97
2022-08-01T08:52:10.844Z,15.43
2022-08-01T08:55:15.735Z,15.85
2022-08-01T08:58:20.602Z,16.13
2022-08-01T09:01:23.296Z,13.55
2022-08-01T09:04:27.052Z,12.00
2022-08-01T09:07:29.549Z,14.50
2022-08-01T09:10:31.759Z,7.53
2022-08-01T09:13:34.636Z,7.90
2022-08-01T09:19:46.398Z,8.93
2022-08-01T09:22:48.786Z,12.95
2022-08-01T09:25:56.739Z,12.15
2022-08-01T09:29:05.741Z,10.75
2022-08-01T09:32:13.852Z,14.65
2022-08-01T09:35:31.139Z,14.95
2022-08-01T09:38:34.401Z,12.13
2022-08-01T09:41:37.936Z,11.48
2022-08-01T09:44:54.668Z,8.38
2022-08-01T09:47:57.736Z,10.18
2022-08-01T09:51:07.368Z,12.77
2022-08-01T09:54:11.868Z,11.90
2022-08-01T09:57:17.013Z,11.07
2022-08-01T10:00:43.743Z,13.00
2022-08-01T10:03:43.534Z,12.15
2022-08-01T10:06:50.949Z,9.70
2022-08-01T10:09:53.485Z,20.17
2022-08-01T10:12:59.470Z,14.27
2022-08-01T10:16:02.798Z,12.85
2022-08-01T10:19:14.593Z,13.88
2022-08-01T10:22:19.706Z,10.55
2022-08-01T10:25:43.082Z,17.02
2022-08-01T10:31:50.312Z,18.27
2022-08-01T10:34:56.216Z,20.08
2022-08-01T10:37:59.364Z,27.25
2022-08-01T10:41:06.068Z,20.55
2022-08-01T10:44:10.062Z,28.85
2022-08-01T10:47:19.464Z,32.53
2022-08-01T10:50:38.674Z,29.40
2022-08-01T10:53:54.841Z,19.02
2022-08-01T10:57:01.703Z,38.30
2022-08-01T11:03:09.479Z,14.77
2022-08-01T11:06:52.016Z,11.35
2022-08-01T11:10:18.021Z,9.38
2022-08-01T11:13:58.496Z,13.98
2022-08-01T11:17:42.600Z,13.40
2022-08-01T11:21:57.790Z,17.00
2022-08-01T11:24:50.649Z,8.88
2022-08-01T11:28:28.485Z,17.90
2022-08-01T11:31:37.796Z,18.02
2022-08-01T11:34:58.861Z,16.15
2022-08-01T11:38:32.816Z,12.00
2022-08-01T11:41:39.295Z,9.35
2022-08-01T11:44:53.227Z,8.40
2022-08-01T11:47:56.098Z,12.35
2022-08-01T11:51:01.922Z,7.05
2022-08-01T11:54:04.624Z,8.32
2022-08-01T11:57:11.893Z,14.63
2022-08-01T12:00:19.900Z,5.35
2022-08-01T12:03:34.595Z,8.90
2022-08-01T12:06:37.018Z,7.85
2022-08-01T12:09:39.461Z,13.27
2022-08-01T12:12:49.840Z,10.32
2022-08-01T12:15:56.546Z,9.18
2022-08-01T12:18:59.350Z,7.15
2022-08-01T12:22:15.562Z,12.05
2022-08-01T12:25:19.123Z,11.27
2022-08-01T12:28:21.787Z,7.63
2022-08-01T12:31:34.405Z,11.32
2022-08-01T12:34:36.680Z,13.23
2022-08-01T12:37:47.879Z,9.40
2022-08-01T12:40:53.382Z,15.98
2022-08-01T12:43:57.018Z,17.27
2022-08-01T12:47:00.142Z,9.25
2022-08-01T12:50:02.597Z,10.82
2022-08-01T12:53:05.193Z,6.95
2022-08-01T12:56:11.699Z,6.43
2022-08-01T12:59:28.646Z,8.60
2022-08-01T13:02:34.723Z,6.65
2022-08-01T13:05:47.008Z,9.45
2022-08-01T13:08:49.380Z,7.82
2022-08-01T13:12:03.857Z,6.15
2022-08-01T13:15:18.998Z,9.80
2022-08-01T13:18:31.233Z,7.85
2022-08-01T13:25:15.435Z,7.18
2022-08-01T13:28:20.869Z,7.22
2022-08-01T13:31:40.996Z,10.77
2022-08-01T13:34:43.328Z,8.80
2022-08-01T13:37:45.741Z,9.68
2022-08-01T13:40:47.973Z,5.90
2022-08-01T13:43:57.943Z,6.27
2022-08-01T13:47:01.763Z,9.70
2022-08-01T13:50:16.207Z,8.93
2022-08-01T13:53:18.786Z,8.15
2022-08-01T13:56:21.332Z,9.77
2022-08-01T13:59:23.627Z,8.75
2022-08-01T14:02:26.134Z,7.63
2022-08-01T14:05:28.554Z,11.30
2022-08-01T14:08:30.914Z,7.95
2022-08-01T14:11:37.067Z,13.23
2022-08-01T14:14:39.710Z,8.55
2022-08-01T14:17:47.567Z,7.00
2022-08-01T14:20:50.657Z,6.90
2022-08-01T14:23:56.070Z,9.25
2022-08-01T14:27:01.848Z,12.73
2022-08-01T14:30:07.852Z,12.73
2022-08-01T14:33:11.163Z,6.38
2022-08-01T14:39:33.317Z,11.43
2022-08-01T14:42:40.143Z,5.95
2022-08-01T14:45:42.729Z,7.85
2022-08-01T14:48:45.041Z,10.70
2022-08-01T14:51:47.617Z,7.80
2022-08-01T14:54:49.852Z,11.82
2022-08-01T14:57:52.325Z,8.70
2022-08-01T15:00:58.840Z,10.85
2022-08-01T15:04:01.209Z,12.30
2022-08-01T15:07:06.669Z,10.70
2022-08-01T15:10:10.499Z,23.38
2022-08-01T15:13:12.853Z,17.35
2022-08-01T15:16:15.019Z,22.02
2022-08-01T15:19:17.752Z,18.40
2022-08-01T15:22:23.780Z,18.52
2022-08-01T15:25:25.936Z,22.45
2022-08-01T15:28:42.802Z,15.38
2022-08-01T15:31:44.963Z,15.02
2022-08-01T15:34:47.606Z,12.88
2022-08-01T15:37:49.880Z,13.45
2022-08-01T15:40:52.136Z,13.00
2022-08-01T15:43:56.233Z,17.23
2022-08-01T15:46:58.621Z,11.95
2022-08-01T15:50:02.982Z,15.68
2022-08-01T15:53:06.366Z,11.13
2022-08-01T15:56:08.804Z,10.50
2022-08-01T15:59:12.794Z,16.55
2022-08-01T16:02:15.111Z,11.82
2022-08-01T16:05:20.562Z,14.05
2022-08-01T16:08:23.034Z,10.25
2022-08-01T16:11:27.863Z,11.25
2022-08-01T16:14:30.228Z,18.17
2022-08-01T16:17:32.701Z,12.77
2022-08-01T16:20:35.335Z,10.53
2022-08-01T16:23:38.287Z,9.13
2022-08-01T16:26:40.572Z,10.15
2022-08-01T16:29:42.835Z,9.23
2022-08-01T16:32:45.010Z,9.93
2022-08-01T16:35:55.381Z,11.82
2022-08-01T16:38:57.796Z,11.30
2022-08-01T16:42:00.172Z,11.48
2022-08-01T16:45:03.964Z,5.97
2022-08-01T16:48:12.564Z,12.50
2022-08-01T16:51:14.886Z,13.25
2022-08-01T16:54:25.206Z,8.95
2022-08-01T16:57:29.220Z,8.52
2022-08-01T17:00:31.650Z,8.85
2022-08-01T17:03:51.403Z,7.70
2022-08-01T17:06:57.555Z,7.47
2022-08-01T17:10:01.230Z,11.63
2022-08-01T17:13:06.478Z,6.18
2022-08-01T17:16:09.528Z,9.38
2022-08-01T17:19:12.131Z,7.82
2022-08-01T17:22:17.335Z,9.93
2022-08-01T17:25:21.896Z,6.72
2022-08-01T17:28:24.456Z,13.30
2022-08-01T17:31:27.147Z,5.55
2022-08-01T17:34:30.870Z,5.70
2022-08-01T17:37:33.340Z,8.70
2022-08-01T17:40:40.437Z,6.38
2022-08-01T17:43:44.006Z,8.10
2022-08-01T17:46:46.416Z,7.93
2022-08-01T17:49:56.442Z,6.25
2022-08-01T17:52:59.789Z,5.68
2022-08-01T17:56:05.861Z,9.18
2022-08-01T17:59:09.685Z,9.63
2022-08-01T18:02:12.050Z,7.63
2022-08-01T18:05:15.650Z,9.13
2022-08-01T18:08:17.957Z,13.18
2022-08-01T18:11:21.090Z,8.13
2022-08-01T18:14:39.974Z,8.85
2022-08-01T18:17:45.657Z,11.70
2022-08-01T18:20:48.262Z,9.45
2022-08-01T18:23:51.654Z,10.20
2022-08-01T18:26:55.062Z,8.85
2022-08-01T18:29:57.293Z,12.75
2022-08-01T18:32:59.933Z,5.68
2022-08-01T18:36:04.148Z,9.48
2022-08-01T18:39:10.294Z,6.95
2022-08-01T18:42:13.165Z,6.03
2022-08-01T18:45:15.422Z,4.67
2022-08-01T18:48:17.856Z,7.43
2022-08-01T18:51:20.141Z,4.35
2022-08-01T18:54:24.484Z,3.10
2022-08-01T18:57:26.942Z,6.88
2022-08-01T19:00:29.440Z,6.00
2022-08-01T19:03:31.992Z,5.83
2022-08-01T19:06:35.380Z,5.50
2022-08-01T19:12:40.597Z,5.25
2022-08-01T19:18:46.619Z,5.00
2022-08-01T19:21:52.502Z,2.95
2022-08-01T19:24:54.893Z,4.57
2022-08-01T19:27:58.773Z,6.35
2022-08-01T19:31:03.513Z,9.20
2022-08-01T19:34:07.674Z,4.72
2022-08-01T19:37:10.539Z,6.03
2022-08-01T19:40:26.809Z,4.15
2022-08-01T19:43:34.280Z,9.40
2022-08-01T19:46:40.468Z,9.07
2022-08-01T19:49:42.922Z,4.45
2022-08-01T19:52:48.793Z,5.90
2022-08-01T19:55:52.662Z,6.50
2022-08-01T19:59:00.062Z,6.90
2022-08-01T20:02:04.016Z,12.00
2022-08-01T20:05:06.957Z,5.75
2022-08-01T20:08:10.101Z,5.68
2022-08-01T20:11:14.599Z,5.20
2022-08-01T20:14:20.404Z,8.10
2022-08-01T20:17:24.032Z,8.52
2022-08-01T20:20:27.032Z,5.72
2022-08-01T20:23:31.385Z,5.00
2022-08-01T20:26:35.658Z,6.93
2022-08-01T20:29:38.289Z,6.38
2022-08-01T20:32:41.279Z,5.83
2022-08-01T20:35:52.179Z,9.30
2022-08-01T20:38:57.677Z,7.60
2022-08-01T20:42:01.637Z,7.20
2022-08-01T20:45:05.539Z,7.57
2022-08-01T20:48:08.983Z,7.55
2022-08-01T20:51:17.191Z,8.75
2022-08-01T20:54:20.341Z,7.45
2022-08-01T20:57:25.540Z,13.05
2022-08-01T21:00:28.411Z,11.15
2022-08-01T21:04:02.795Z,7.77
2022-08-01T21:10:29.764Z,7.68
2022-08-01T21:13:41.422Z,4.65
2022-08-01T21:16:49.841Z,15.45
2022-08-01T21:19:55.541Z,9.32
2022-08-01T21:23:10.200Z,6.75
2022-08-01T21:26:13.776Z,22.20
2022-08-01T21:29:18.878Z,10.90
2022-08-01T21:32:24.349Z,14.85
2022-08-01T21:35:33.153Z,9.23
2022-08-01T21:38:37.401Z,13.10
2022-08-01T21:42:05.289Z,14.68
2022-08-01T21:45:04.121Z,8.43
2022-08-01T21:48:07.994Z,9.10
2022-08-01T21:51:28.694Z,8.27
2022-08-01T21:54:57.872Z,10.32
2022-08-01T21:58:27.640Z,9.18
2022-08-01T22:01:53.239Z,6.90
2022-08-01T22:05:03.023Z,7.88
2022-08-01T22:08:09.755Z,9.50
2022-08-01T22:11:16.441Z,8.23
2022-08-01T22:14:19.755Z,7.32
2022-08-01T22:17:23.827Z,15.60
2022-08-01T22:20:27.778Z,11.07
2022-08-01T22:23:30.206Z,9.50
2022-08-01T22:26:35.285Z,6.28
2022-08-01T22:29:37.587Z,7.25
2022-08-01T22:32:41.481Z,8.77
2022-08-01T22:35:47.792Z,6.50
2022-08-01T22:38:50.542Z,8.88
2022-08-01T22:42:01.395Z,8.75
2022-08-01T22:45:22.880Z,9.10
2022-08-01T22:48:34.686Z,5.55
2022-08-01T22:51:55.670Z,9.90
2022-08-01T22:55:06.002Z,5.63
2022-08-01T22:58:12.701Z,5.38
2022-08-01T23:01:23.721Z,11.85
2022-08-01T23:04:35.489Z,16.00
2022-08-01T23:07:49.805Z,13.23
2022-08-01T23:10:53.693Z,12.93
2022-08-01T23:17:03.312Z,11.07
2022-08-01T23:20:26.574Z,8.93
2022-08-01T23:23:31.287Z,7.70
2022-08-01T23:26:34.606Z,9.15
2022-08-01T23:29:37.084Z,7.38
2022-08-01T23:32:39.539Z,8.75
2022-08-01T23:35:42.361Z,9.75
2022-08-01T23:38:47.559Z,7.88
2022-08-01T23:41:57.956Z,8.32
2022-08-01T23:45:01.404Z,28.33
2022-08-01T23:48:03.720Z,12.10
2022-08-01T23:51:07.111Z,7.80
2022-08-01T23:54:09.633Z,8.18
2022-08-01T23:57:13.470Z,7.80
